createdAt,value
2022-11-28T00:00:09.069Z,5.40
2022-11-28T00:03:15.711Z,5.10
2022-11-28T00:06:22.803Z,5.20
2022-11-28T00:09:30.253Z,5.80
2022-11-28T00:12:36.832Z,4.80
2022-11-28T00:15:44.163Z,7.00
2022-11-28T00:18:51.447Z,5.80
2022-11-28T00:21:57.884Z,5.70
2022-11-28T00:25:04.974Z,5.20
2022-11-28T00:28:11.799Z,5.60
2022-11-28T00:31:18.692Z,5.50
2022-11-28T00:34:25.866Z,5.70
2022-11-28T00:37:32.577Z,6.30
2022-11-28T00:40:39.347Z,5.80
2022-11-28T00:43:46.407Z,5.60
2022-11-28T00:46:53.279Z,5.70
2022-11-28T00:50:00.097Z,5.10
2022-11-28T00:53:06.879Z,5.30
2022-11-28T00:56:14.180Z,5.10
2022-11-28T00:59:20.879Z,5.60
2022-11-28T01:02:27.805Z,5.20
2022-11-28T01:05:35.083Z,4.80
2022-11-28T01:08:41.491Z,4.20
2022-11-28T01:11:48.750Z,4.80
2022-11-28T01:14:55.443Z,3.90
2022-11-28T01:18:01.917Z,3.80
2022-11-28T01:21:09.143Z,3.90
2022-11-28T01:24:16.273Z,4.20
2022-11-28T01:27:22.734Z,3.60
2022-11-28T01:30:30.044Z,4.00
2022-11-28T01:33:36.951Z,3.90
2022-11-28T01:36:43.805Z,3.90
2022-11-28T01:39:50.735Z,4.40
2022-11-28T01:42:57.563Z,5.10
2022-11-28T01:46:04.518Z,5.10
2022-11-28T01:49:14.467Z,4.90
2022-11-28T01:52:20.977Z,5.30
2022-11-28T01:55:28.408Z,5.40
2022-11-28T01:58:35.328Z,4.70
2022-11-28T02:01:42.542Z,5.00
2022-11-28T02:04:49.339Z,4.70
2022-11-28T02:07:56.125Z,4.90
2022-11-28T02:11:03.081Z,5.60
2022-11-28T02:14:09.968Z,5.30
2022-11-28T02:17:16.700Z,5.60
2022-11-28T02:20:23.573Z,5.20
2022-11-28T02:23:30.073Z,5.20
2022-11-28T02:26:37.373Z,5.40
2022-11-28T02:29:43.904Z,5.90
2022-11-28T02:32:51.056Z,6.20
2022-11-28T02:35:58.265Z,6.00
2022-11-28T02:39:04.665Z,5.40
2022-11-28T02:42:11.426Z,5.70
2022-11-28T02:45:18.788Z,6.00
2022-11-28T02:48:25.283Z,6.60
2022-11-28T02:51:32.606Z,6.60
2022-11-28T02:54:39.841Z,6.40
2022-11-28T02:57:46.741Z,8.10
2022-11-28T03:00:54.107Z,6.30
2022-11-28T03:04:01.029Z,6.30
2022-11-28T03:07:07.986Z,6.60
2022-11-28T03:10:14.939Z,6.60
2022-11-28T03:13:21.869Z,6.90
2022-11-28T03:16:28.766Z,5.70
2022-11-28T03:19:35.731Z,6.00
2022-11-28T03:22:43.082Z,5.60
2022-11-28T03:25:50.081Z,5.60
2022-11-28T03:28:57.060Z,5.50
2022-11-28T03:32:04.225Z,6.70
2022-11-28T03:35:11.232Z,5.90
2022-11-28T03:38:17.986Z,6.20
2022-11-28T03:41:25.314Z,6.60
2022-11-28T03:44:31.791Z,7.10
2022-11-28T03:47:39.057Z,7.40
2022-11-28T03:50:46.055Z,8.10
2022-11-28T03:53:53.053Z,8.40
2022-11-28T03:57:00.406Z,7.80
2022-11-28T04:00:07.468Z,7.70
2022-11-28T04:03:14.097Z,7.70
2022-11-28T04:06:20.858Z,8.40
2022-11-28T04:09:28.176Z,7.80
2022-11-28T04:12:35.009Z,8.10
2022-11-28T04:15:41.710Z,9.20
2022-11-28T04:18:48.869Z,8.80
2022-11-28T04:21:55.290Z,8.30
2022-11-28T04:25:02.401Z,8.60
2022-11-28T04:28:09.637Z,9.20
2022-11-28T04:31:16.538Z,8.40
2022-11-28T04:34:23.399Z,8.00
2022-11-28T04:37:30.714Z,9.00
2022-11-28T04:40:37.562Z,8.10
2022-11-28T04:43:44.303Z,7.90
2022-11-28T04:46:51.394Z,8.90
2022-11-28T04:49:58.289Z,8.50
2022-11-28T04:53:05.195Z,7.00
2022-11-28T04:56:11.995Z,7.70
2022-11-28T04:59:18.905Z,8.00
2022-11-28T05:02:26.585Z,8.20
2022-11-28T05:05:33.538Z,7.00
2022-11-28T05:08:40.849Z,6.90
2022-11-28T05:11:47.936Z,6.50
2022-11-28T05:14:55.071Z,6.60
2022-11-28T05:18:02.259Z,6.20
2022-11-28T05:21:09.258Z,6.80
2022-11-28T05:24:16.652Z,7.10
2022-11-28T05:27:23.668Z,6.50
2022-11-28T05:30:30.800Z,6.00
2022-11-28T05:33:38.279Z,6.60
2022-11-28T05:36:45.010Z,6.90
2022-11-28T05:39:52.320Z,6.10
2022-11-28T05:42:59.461Z,7.00
2022-11-28T05:46:06.381Z,5.80
2022-11-28T05:49:13.685Z,6.60
2022-11-28T05:52:21.373Z,6.40
2022-11-28T05:55:28.063Z,6.50
2022-11-28T05:58:35.530Z,6.40
2022-11-28T06:01:42.792Z,6.10
2022-11-28T06:04:49.795Z,6.30
2022-11-28T06:07:57.419Z,6.80
2022-11-28T06:11:04.515Z,7.30
2022-11-28T06:14:11.805Z,6.70
2022-11-28T06:17:19.226Z,7.90
2022-11-28T06:20:26.017Z,7.40
2022-11-28T06:23:33.058Z,7.80
2022-11-28T06:26:40.038Z,7.90
2022-11-28T06:29:47.747Z,7.50
2022-11-28T06:32:54.457Z,7.80
2022-11-28T06:36:01.867Z,7.20
2022-11-28T06:39:09.393Z,7.50
2022-11-28T06:42:16.199Z,6.90
2022-11-28T06:45:23.715Z,7.10
2022-11-28T06:48:31.145Z,7.40
2022-11-28T06:51:37.900Z,6.90
2022-11-28T06:54:45.462Z,7.50
2022-11-28T06:57:52.812Z,7.10
2022-11-28T07:00:59.692Z,7.70
2022-11-28T07:04:07.063Z,8.00
2022-11-28T07:07:16.664Z,8.00
2022-11-28T07:10:24.353Z,8.20
2022-11-28T07:13:31.785Z,7.90
2022-11-28T07:16:38.585Z,8.10
2022-11-28T07:19:50.506Z,8.00
2022-11-28T07:22:49.195Z,7.70
2022-11-28T07:25:56.383Z,9.00
2022-11-28T07:29:03.677Z,8.60
2022-11-28T07:32:10.889Z,7.90
2022-11-28T07:35:17.918Z,8.50
2022-11-28T07:38:25.410Z,8.50
2022-11-28T07:41:32.368Z,8.50
2022-11-28T07:44:39.279Z,8.20
2022-11-28T07:47:46.599Z,8.40
2022-11-28T07:50:53.349Z,8.20
2022-11-28T07:54:00.559Z,8.80
2022-11-28T07:57:12.756Z,7.90
2022-11-28T08:00:09.540Z,7.80
2022-11-28T08:03:16.685Z,7.80
2022-11-28T08:06:23.721Z,8.00
2022-11-28T08:09:31.402Z,7.40
2022-11-28T08:12:38.403Z,8.30
2022-11-28T08:15:45.455Z,8.20
2022-11-28T08:18:52.495Z,7.80
2022-11-28T08:21:59.196Z,7.70
2022-11-28T08:25:06.634Z,8.50
2022-11-28T08:28:13.765Z,8.40
2022-11-28T08:31:20.645Z,8.80
2022-11-28T08:34:28.047Z,9.20
2022-11-28T08:37:35.457Z,8.00
2022-11-28T08:40:42.022Z,9.00
2022-11-28T08:43:49.467Z,8.30
2022-11-28T08:46:56.018Z,8.00
2022-11-28T08:50:03.136Z,7.70
2022-11-28T08:53:10.588Z,7.90
2022-11-28T08:56:17.391Z,7.50
2022-11-28T08:59:24.808Z,8.00
2022-11-28T09:02:32.200Z,7.50
2022-11-28T09:05:38.883Z,7.60
2022-11-28T09:08:46.295Z,7.20
2022-11-28T09:11:53.699Z,7.20
2022-11-28T09:15:00.503Z,7.30
2022-11-28T09:18:07.893Z,7.60
2022-11-28T09:21:14.875Z,7.50
2022-11-28T09:24:21.956Z,7.60
2022-11-28T09:27:29.306Z,7.20
2022-11-28T09:30:36.519Z,7.70
2022-11-28T09:33:43.536Z,7.40
2022-11-28T09:36:50.865Z,7.00
2022-11-28T09:40:12.831Z,7.70
2022-11-28T09:43:02.188Z,7.20
2022-11-28T09:46:09.322Z,7.10
2022-11-28T09:49:16.907Z,6.80
2022-11-28T09:52:24.091Z,6.90
2022-11-28T09:55:30.862Z,7.50
2022-11-28T09:58:38.075Z,6.90
2022-11-28T10:01:44.462Z,7.20
2022-11-28T10:04:51.656Z,7.20
2022-11-28T10:07:58.839Z,7.50
2022-11-28T10:11:05.274Z,7.20
2022-11-28T10:14:12.298Z,6.40
2022-11-28T10:17:19.098Z,7.00
2022-11-28T10:20:25.852Z,7.10
2022-11-28T10:23:33.042Z,7.40
2022-11-28T10:26:39.833Z,7.30
2022-11-28T10:29:46.715Z,8.30
2022-11-28T10:32:53.718Z,7.70
2022-11-28T10:36:00.504Z,7.60
2022-11-28T10:39:09.990Z,7.50
2022-11-28T10:42:07.277Z,7.60
2022-11-28T10:45:14.350Z,7.20
2022-11-28T10:51:25.337Z,7.80
2022-11-28T10:54:32.576Z,7.50
2022-11-28T10:57:39.348Z,7.30
2022-11-28T11:00:46.078Z,7.70
2022-11-28T11:03:53.459Z,7.20
2022-11-28T11:07:10.179Z,7.60
2022-11-28T11:10:04.411Z,6.90
2022-11-28T11:13:11.163Z,7.20
2022-11-28T11:16:17.662Z,7.30
2022-11-28T11:19:24.502Z,6.90
2022-11-28T11:22:30.918Z,7.80
2022-11-28T11:25:38.142Z,7.50
2022-11-28T11:28:45.283Z,8.10
2022-11-28T11:31:51.684Z,7.70
2022-11-28T11:34:58.710Z,6.70
2022-11-28T11:38:05.941Z,7.50
2022-11-28T11:41:12.366Z,7.60
2022-11-28T11:44:19.615Z,7.90
2022-11-28T11:47:26.456Z,8.00
2022-11-28T11:50:33.276Z,7.60
2022-11-28T11:53:40.760Z,7.70
2022-11-28T11:56:47.750Z,7.80
2022-11-28T11:59:54.748Z,7.80
2022-11-28T12:03:02.195Z,8.60
2022-11-28T12:06:16.055Z,7.40
2022-11-28T12:09:11.534Z,7.30
2022-11-28T12:12:18.314Z,7.40
2022-11-28T12:15:25.221Z,7.60
2022-11-28T12:18:33.910Z,7.20
2022-11-28T12:21:40.626Z,7.80
2022-11-28T12:24:47.933Z,7.40
2022-11-28T12:27:54.924Z,7.00
2022-11-28T12:31:02.138Z,7.90
2022-11-28T12:34:08.965Z,6.70
2022-11-28T12:37:15.716Z,7.00
2022-11-28T12:40:22.957Z,7.30
2022-11-28T12:43:29.784Z,6.50
2022-11-28T12:46:36.642Z,7.00
2022-11-28T12:49:43.445Z,7.70
2022-11-28T12:52:50.468Z,8.00
2022-11-28T12:55:57.600Z,6.70
2022-11-28T12:59:04.570Z,7.30
2022-11-28T13:02:11.594Z,7.30
2022-11-28T13:05:19.301Z,7.60
2022-11-28T13:08:26.270Z,6.90
2022-11-28T13:11:33.492Z,7.10
2022-11-28T13:14:40.790Z,6.80
2022-11-28T13:17:47.433Z,7.40
2022-11-28T13:20:54.934Z,7.30
2022-11-28T13:24:06.871Z,7.70
2022-11-28T13:27:03.405Z,7.60
2022-11-28T13:30:10.684Z,7.60
2022-11-28T13:33:17.883Z,7.20
2022-11-28T13:39:28.716Z,8.20
2022-11-28T13:45:39.632Z,7.40
2022-11-28T13:51:50.445Z,8.10
2022-11-28T13:54:57.605Z,8.30
2022-11-28T13:58:04.351Z,8.40
2022-11-28T14:01:10.854Z,7.70
2022-11-28T14:04:18.159Z,7.70
2022-11-28T14:07:24.762Z,8.20
2022-11-28T14:10:31.921Z,7.70
2022-11-28T14:13:39.132Z,9.30
2022-11-28T14:16:51.601Z,8.60
2022-11-28T14:19:48.602Z,8.40
2022-11-28T14:22:55.532Z,9.20
2022-11-28T14:26:02.490Z,8.40
2022-11-28T14:29:09.595Z,8.70
2022-11-28T14:32:29.742Z,8.90
2022-11-28T14:35:20.465Z,9.50
2022-11-28T14:38:27.664Z,9.10
2022-11-28T14:41:34.346Z,9.10
2022-11-28T14:44:41.045Z,9.20
2022-11-28T14:47:48.073Z,9.50
2022-11-28T14:51:00.933Z,10.00
2022-11-28T14:53:58.068Z,9.10
2022-11-28T14:57:05.069Z,9.70
2022-11-28T15:00:12.099Z,9.50
2022-11-28T15:03:19.797Z,8.90
2022-11-28T15:06:27.030Z,9.10
2022-11-28T15:09:34.170Z,9.20
2022-11-28T15:12:41.112Z,9.30
2022-11-28T15:15:48.832Z,9.60
2022-11-28T15:18:55.901Z,9.30
2022-11-28T15:22:03.033Z,9.50
2022-11-28T15:25:10.312Z,9.50
2022-11-28T15:28:16.733Z,9.30
2022-11-28T15:31:23.538Z,8.70
2022-11-28T15:34:30.303Z,9.20
2022-11-28T15:37:36.900Z,9.10
2022-11-28T15:40:44.006Z,8.20
2022-11-28T15:43:50.954Z,9.40
2022-11-28T15:46:57.450Z,8.70
2022-11-28T15:50:04.825Z,9.10
2022-11-28T15:53:11.303Z,9.60
2022-11-28T15:56:18.359Z,9.10
2022-11-28T15:59:25.514Z,8.90
2022-11-28T16:02:32.425Z,10.00
2022-11-28T16:05:39.408Z,9.70
2022-11-28T16:08:46.600Z,9.70
2022-11-28T16:11:53.169Z,9.00
2022-11-28T16:15:00.239Z,10.00
2022-11-28T16:18:07.163Z,9.90
2022-11-28T16:21:14.100Z,11.10
2022-11-28T16:24:21.391Z,10.30
2022-11-28T16:27:28.301Z,9.60
2022-11-28T16:30:35.242Z,10.70
2022-11-28T16:33:42.593Z,11.00
2022-11-28T16:36:49.413Z,10.00
2022-11-28T16:39:56.362Z,9.90
2022-11-28T16:43:03.214Z,9.80
2022-11-28T16:46:10.437Z,11.80
2022-11-28T16:49:17.305Z,10.80
2022-11-28T16:52:24.293Z,10.00
2022-11-28T16:55:31.599Z,10.00
2022-11-28T16:58:38.316Z,10.10
2022-11-28T17:01:45.301Z,10.00
2022-11-28T17:04:52.486Z,40.60
2022-11-28T17:07:59.044Z,10.50
2022-11-28T17:11:06.256Z,11.60
2022-11-28T17:14:13.996Z,11.30
2022-11-28T17:17:20.480Z,9.30
2022-11-28T17:20:27.710Z,12.10
2022-11-28T17:23:34.520Z,18.90
2022-11-28T17:26:41.290Z,11.00
2022-11-28T17:29:48.710Z,9.70
2022-11-28T17:32:55.141Z,9.70
2022-11-28T17:36:02.292Z,9.80
2022-11-28T17:39:09.403Z,10.10
2022-11-28T17:42:15.883Z,9.20
2022-11-28T17:45:23.002Z,12.50
2022-11-28T17:48:30.404Z,10.50
2022-11-28T17:51:36.984Z,11.10
2022-11-28T17:54:44.404Z,11.00
2022-11-28T17:57:51.255Z,11.70
2022-11-28T18:01:00.774Z,12.80
2022-11-28T18:04:08.104Z,12.00
2022-11-28T18:07:14.945Z,13.80
2022-11-28T18:10:21.326Z,12.80
2022-11-28T18:13:28.644Z,11.40
2022-11-28T18:16:36.194Z,11.20
2022-11-28T18:19:43.043Z,10.40
2022-11-28T18:22:50.027Z,11.10
2022-11-28T18:25:57.299Z,10.10
2022-11-28T18:29:04.248Z,9.70
2022-11-28T18:32:11.117Z,10.10
2022-11-28T18:35:18.278Z,10.30
2022-11-28T18:38:25.168Z,15.00
2022-11-28T18:41:31.924Z,11.00
2022-11-28T18:44:38.549Z,9.20
2022-11-28T18:47:45.871Z,9.70
2022-11-28T18:50:53.196Z,9.60
2022-11-28T18:54:00.004Z,9.70
2022-11-28T18:57:06.905Z,10.20
2022-11-28T19:00:14.303Z,11.00
2022-11-28T19:03:21.055Z,9.70
2022-11-28T19:06:27.835Z,9.90
2022-11-28T19:09:34.830Z,10.20
2022-11-28T19:12:41.258Z,9.80
2022-11-28T19:15:48.356Z,9.70
2022-11-28T19:18:55.640Z,9.80
2022-11-28T19:22:02.196Z,9.00
2022-11-28T19:25:09.406Z,9.90
2022-11-28T19:28:16.648Z,9.70
2022-11-28T19:31:23.311Z,9.90
2022-11-28T19:34:30.439Z,10.00
2022-11-28T19:37:37.344Z,10.40
2022-11-28T19:40:44.590Z,10.20
2022-11-28T19:43:51.801Z,10.40
2022-11-28T19:46:58.763Z,10.50
2022-11-28T19:50:06.173Z,9.60
2022-11-28T19:53:12.837Z,10.20
2022-11-28T19:56:19.721Z,10.80
2022-11-28T19:59:26.924Z,10.30
2022-11-28T20:02:33.875Z,10.50
2022-11-28T20:05:40.581Z,10.20
2022-11-28T20:08:47.714Z,10.30
2022-11-28T20:11:54.263Z,10.40
2022-11-28T20:15:01.520Z,10.10
2022-11-28T20:18:08.678Z,10.00
2022-11-28T20:21:15.135Z,9.30
2022-11-28T20:24:22.366Z,9.20
2022-11-28T20:27:29.396Z,10.00
2022-11-28T20:30:35.797Z,10.00
2022-11-28T20:33:42.846Z,10.00
2022-11-28T20:36:49.315Z,8.90
2022-11-28T20:39:56.471Z,9.40
2022-11-28T20:43:03.388Z,9.20
2022-11-28T20:46:10.029Z,9.10
2022-11-28T20:49:17.179Z,8.90
2022-11-28T20:52:24.458Z,9.60
2022-11-28T20:55:31.080Z,10.00
2022-11-28T20:58:38.192Z,10.00
2022-11-28T21:01:45.428Z,9.20
2022-11-28T21:04:51.922Z,9.50
2022-11-28T21:07:59.240Z,10.50
2022-11-28T21:11:05.712Z,10.40
2022-11-28T21:14:12.525Z,9.50
2022-11-28T21:17:19.972Z,9.90
2022-11-28T21:20:26.995Z,10.20
2022-11-28T21:23:33.755Z,9.70
2022-11-28T21:26:44.185Z,10.00
2022-11-28T21:29:44.355Z,9.90
2022-11-28T21:32:51.335Z,10.60
2022-11-28T21:35:58.146Z,10.60
2022-11-28T21:39:05.116Z,10.50
2022-11-28T21:42:17.449Z,9.20
2022-11-28T21:45:15.709Z,10.70
2022-11-28T21:48:22.528Z,10.70
2022-11-28T21:51:29.217Z,11.40
2022-11-28T21:54:36.459Z,11.20
2022-11-28T21:57:43.339Z,10.90
2022-11-28T22:00:54.032Z,10.20
2022-11-28T22:03:50.796Z,10.00
2022-11-28T22:06:57.631Z,11.40
2022-11-28T22:10:04.561Z,11.60
2022-11-28T22:13:11.860Z,11.10
2022-11-28T22:16:18.473Z,10.90
2022-11-28T22:19:25.734Z,10.60
2022-11-28T22:22:33.529Z,10.30
2022-11-28T22:25:40.163Z,11.50
2022-11-28T22:28:53.207Z,10.70
2022-11-28T22:31:50.003Z,10.70
2022-11-28T22:34:56.742Z,10.20
2022-11-28T22:38:04.105Z,10.50
2022-11-28T22:41:10.636Z,10.40
2022-11-28T22:44:17.507Z,11.40
2022-11-28T22:47:24.894Z,10.00
2022-11-28T22:50:33.819Z,10.30
2022-11-28T22:53:33.824Z,9.70
2022-11-28T22:56:40.987Z,10.20
2022-11-28T22:59:47.512Z,11.30
2022-11-28T23:02:54.948Z,10.30
2022-11-28T23:06:01.850Z,10.60
2022-11-28T23:09:08.660Z,10.20
2022-11-28T23:12:15.967Z,10.00
2022-11-28T23:15:22.481Z,10.40
2022-11-28T23:18:29.507Z,10.90
2022-11-28T23:21:36.784Z,10.40
2022-11-28T23:24:43.871Z,10.30
2022-11-28T23:27:50.853Z,11.00
2022-11-28T23:30:57.776Z,11.40
2022-11-28T23:34:04.965Z,10.80
2022-11-28T23:37:11.835Z,11.20
2022-11-28T23:40:18.584Z,11.60
2022-11-28T23:43:25.887Z,10.60
2022-11-28T23:46:32.865Z,11.00
2022-11-28T23:49:39.837Z,11.50
2022-11-28T23:52:46.988Z,10.80
2022-11-28T23:55:53.580Z,11.00
2022-11-28T23:59:00.768Z,12.20
